LUD weather

Decatur Municipal Airport
Decatur, Texas, United States

Public forecast

Using degrees Fahrenheit for public forecast. Weather courtesy of forecast.io.

Current aviation weather report (METAR) for Decatur Municipal Airport

Retrieved 2019/10/18 13:35 UTC (0 seconds ago):

KLUD 181335Z AUTO 12004KT 10SM CLR 11/08 A2989 RMK AO2 T01120084

Closest aviation forecast (TAF) to Decatur Municipal Airport

Closest forecast is Fort Worth Alliance Airport, 20.7 nm (38.4 km) SE. Retrieved 2019/10/18 12:36 UTC (41 minutes ago):

TAF KAFW 181135Z 1812/1912 15010KT P6SM FEW300 FM190800 18009KT P6SM VCSH SCT070 BKN100